Tuesday, September 02, 2014
04:26 UTC
  |  Log In   |  Register Free
Airport Search:

Gainesville Municipal Airport
(KGLE)

FAA data valid effective July 24, 2014 until September 18, 2014 (unless otherwise noted).

 
 
 
 
 
 
 
 
 
 
 
 
 
 

Current Aviation Weather for Gainesville Municipal Airport (KGLE)

The most recent METAR observation for KGLE was updated at: 0215 UTC
METAR Summary (Translated METAR)
KGLE
020215Z AUTO 14010G14KT 10SM CLR 29/21 A2987 RMK AO2 T02930206
KGYI
(26.4 nm NE from KGLE)
020215Z AUTO 15012KT 10SM CLR 31/20 A2986 RMK AO2 T03050195
TAF
No TAF information found within 50 nm of KGLE
  Airport Weather Conditions for KGLE

 Current Weather at GLE
83° F
Fair
Southeast winds at 12.7 mph
GLE NOAA Radar

Pressure: 29.88 in
Humidity: 62%
Wind: from the Southeast at 12.7 gusting to 18.4 MPH (11 gusting to 16 KT)
Dew Point: 68.7°F
Visibility: 10.00 mi


Airport Weather Forecast for KGLE

Translated METAR and TAF for KGLE
Translated METAR for KGLE (0420 UTC 02 September 2014)
found at http://aviationweather.gov/adds/metars/
 
METAR text: KGLE 020415Z AUTO 14011G15KT 10SM CLR 28/20 A2988 RMK AO2 T02830201
Conditions at: KGLE (GAINESVILLE , TX, US) observed 0415 UTC 02 September 2014
Temperature: 28.3°C (83°F)
Dewpoint: 20.1°C (68°F) [RH = 61%]
Pressure (altimeter): 29.88 inches Hg (1011.9 mb)
Winds: from the SE (140 degrees) at 13 MPH (11 knots; 5.7 m/s)
gusting to 17 MPH (15 knots; 7.8 m/s)
Visibility: 10 or more miles (16+ km)
Ceiling: at least 12,000 feet AGL
Clouds: sky clear below 12,000 feet AGL
Weather: automated observation with no human augmentation;
there may or may not be significant weather present at this time
Translated TAF for KGLE

There is no translated TAF available for this airport

Find All Airport Services Find A Hotel Find A Rental Car Find A Golf Course Find A Restaurant $100 Hamburger



FBO's on the Field
FBO Company Facility Photos Services Transportation Aviation Fuel Prices: Prices include tax
Catering Weather Repair Courtesy Rental Type 100LL JetA JetA+ MOGAS 8087
 
City of Gainesville Municipal Airport

This FBO has not yet been rated
FS:Phillips66
Last Updated: Aug-10
Login to update fuel prices
SS:
Contact City of Gainesville Municipal AirportMore FBO Information
 
Add another FBO Facility Photos Catering Weather Repair Courtesy Rental Type 100LL JetA JetA+ MOGAS 8087
Services Transportation Aviation Fuel Prices: Prices include tax


GlobalAir.com Airport Resource Center model-print
model-print
model-print
model-print